createdAt,value
2018-03-04T00:02:51.877Z,84.30
2018-03-04T00:05:49.197Z,84.10
2018-03-04T00:08:53.694Z,83.90
2018-03-04T00:15:38.012Z,84.00
2018-03-04T00:19:03.408Z,84.10
2018-03-04T00:21:53.483Z,84.10
2018-03-04T00:24:44.286Z,84.00
2018-03-04T00:36:02.521Z,84.00
2018-03-04T00:39:04.599Z,83.70
2018-03-04T00:42:57.181Z,83.70
2018-03-04T00:46:06.428Z,83.70
2018-03-04T00:49:35.869Z,83.90
2018-03-04T00:52:28.687Z,83.40
2018-03-04T00:55:31.336Z,83.40
2018-03-04T01:01:52.506Z,83.40
2018-03-04T01:04:49.542Z,83.60
2018-03-04T01:07:47.572Z,83.40
2018-03-04T01:10:34.082Z,84.10
2018-03-04T01:13:40.648Z,83.50
2018-03-04T01:16:34.009Z,83.90
2018-03-04T01:22:19.901Z,84.10
2018-03-04T01:25:09.506Z,84.50
2018-03-04T01:31:07.666Z,85.50
2018-03-04T01:34:10.392Z,85.50
2018-03-04T01:37:32.072Z,86.30
2018-03-04T01:57:33.896Z,88.80
2018-03-04T02:00:25.252Z,89.20
2018-03-04T02:07:40.053Z,89.20
2018-03-04T02:21:09.319Z,90.30
2018-03-04T02:23:55.019Z,90.50
2018-03-04T02:27:14.178Z,90.60
2018-03-04T02:30:12.996Z,90.70
2018-03-04T02:33:14.920Z,91.20
2018-03-04T02:35:59.526Z,91.20
2018-03-04T02:38:54.188Z,90.90
2018-03-04T02:41:43.348Z,91.10
2018-03-04T02:44:33.643Z,91.10
2018-03-04T02:47:45.063Z,91.00
2018-03-04T02:50:42.115Z,91.00
2018-03-04T02:53:44.721Z,90.90
2018-03-04T02:56:37.324Z,90.90
2018-03-04T02:59:29.874Z,90.90
2018-03-04T03:02:23.749Z,91.00
2018-03-04T03:05:25.071Z,91.20
2018-03-04T03:08:08.505Z,91.30
2018-03-04T03:10:53.630Z,91.20
2018-03-04T03:13:46.682Z,91.00
2018-03-04T03:16:39.477Z,90.90
2018-03-04T03:19:27.827Z,90.90
2018-03-04T03:22:26.920Z,91.00
2018-03-04T03:25:14.442Z,90.70
2018-03-04T03:28:04.729Z,90.80
2018-03-04T03:30:49.475Z,90.60
2018-03-04T03:33:43.652Z,90.60
2018-03-04T03:39:12.239Z,90.50
2018-03-04T03:42:00.417Z,90.20
2018-03-04T03:44:39.334Z,90.30
2018-03-04T03:47:30.018Z,90.20
2018-03-04T03:50:15.798Z,90.10
2018-03-04T03:53:01.357Z,90.00
2018-03-04T03:55:54.550Z,90.00
2018-03-04T03:58:44.080Z,89.70
2018-03-04T04:01:25.371Z,89.60
2018-03-04T04:06:58.361Z,89.50
2018-03-04T04:09:46.521Z,89.50
2018-03-04T04:12:31.846Z,89.40
2018-03-04T04:15:16.726Z,89.30
2018-03-04T04:18:03.621Z,89.40
2018-03-04T04:23:49.348Z,89.10
2018-03-04T04:29:24.835Z,89.20
2018-03-04T04:32:13.393Z,89.20
2018-03-04T04:34:57.670Z,88.80
2018-03-04T04:37:48.527Z,89.10
2018-03-04T04:40:33.183Z,89.70
2018-03-04T04:43:37.023Z,89.90
2018-03-04T04:47:00.721Z,90.00
2018-03-04T04:49:45.575Z,90.00
2018-03-04T04:52:45.191Z,90.00
2018-03-04T04:55:24.435Z,90.00
2018-03-04T04:58:06.992Z,90.40
2018-03-04T05:00:45.952Z,90.30
2018-03-04T05:03:26.594Z,90.30
2018-03-04T05:06:29.079Z,90.20
2018-03-04T05:09:09.259Z,90.10
2018-03-04T05:12:11.292Z,89.80
2018-03-04T05:14:52.215Z,89.50
2018-03-04T05:17:40.985Z,89.50
2018-03-04T05:26:47.557Z,89.20
2018-03-04T05:29:45.343Z,88.80
2018-03-04T05:32:22.785Z,88.30
2018-03-04T05:35:10.832Z,88.20
2018-03-04T05:41:30.343Z,88.30
2018-03-04T05:44:21.490Z,88.10
2018-03-04T05:47:03.227Z,88.00
2018-03-04T05:49:48.284Z,88.00
2018-03-04T05:52:51.488Z,87.90
2018-03-04T05:58:53.138Z,88.00
2018-03-04T06:01:53.987Z,88.10
2018-03-04T06:04:57.847Z,88.10
2018-03-04T06:07:55.499Z,88.00
2018-03-04T06:10:50.187Z,87.90
2018-03-04T06:13:51.910Z,87.80
2018-03-04T09:16:41.620Z,69.00
2018-03-04T09:19:29.974Z,67.30
2018-03-04T09:23:24.755Z,64.80
2018-03-04T09:35:31.156Z,65.90
2018-03-04T09:45:17.907Z,65.20
2018-03-04T09:48:10.461Z,65.20
2018-03-04T09:51:03.015Z,65.80
2018-03-04T10:15:20.540Z,61.70
2018-03-04T10:34:13.144Z,60.20
2018-03-04T10:37:41.040Z,60.50
2018-03-04T10:54:15.115Z,60.40
2018-03-04T11:12:55.870Z,60.50
2018-03-04T11:16:07.025Z,59.10
2018-03-04T11:19:31.957Z,57.90
2018-03-04T11:33:03.987Z,56.80
2018-03-04T11:42:51.515Z,56.10
2018-03-04T11:46:06.872Z,57.30
2018-03-04T11:49:09.669Z,56.70
2018-03-04T12:12:58.862Z,56.60
2018-03-04T12:15:44.741Z,55.10
2018-03-04T12:19:08.766Z,54.40
2018-03-04T12:22:04.260Z,54.60
2018-03-04T12:57:44.390Z,53.90
2018-03-04T13:34:46.691Z,52.00
2018-03-04T13:52:34.202Z,51.60
2018-03-04T13:58:59.714Z,51.80
2018-03-04T14:26:14.421Z,51.10
2018-03-04T14:29:05.158Z,51.60
2018-03-04T14:32:12.616Z,51.20
2018-03-04T16:17:48.332Z,55.10
2018-03-04T16:43:27.036Z,56.10
2018-03-04T17:05:17.596Z,56.40
2018-03-04T17:11:23.505Z,57.50
2018-03-04T17:14:38.387Z,57.50
2018-03-04T17:17:38.590Z,57.90
2018-03-04T17:31:41.872Z,58.00
2018-03-04T20:28:51.065Z,75.00
2018-03-04T20:31:57.442Z,75.40
2018-03-04T20:35:15.384Z,75.00
2018-03-04T20:42:01.073Z,75.00
2018-03-04T20:47:49.080Z,75.60
2018-03-04T21:00:41.766Z,74.20
2018-03-04T21:03:55.282Z,73.50
2018-03-04T21:19:32.677Z,75.30
2018-03-04T21:31:37.122Z,74.70
2018-03-04T21:40:22.676Z,73.80
2018-03-04T21:46:04.767Z,73.80
2018-03-04T21:54:47.394Z,73.50
2018-03-04T22:01:10.054Z,74.10
2018-03-04T22:03:58.531Z,74.50
2018-03-04T22:06:49.281Z,75.00
2018-03-04T22:09:43.931Z,77.80
2018-03-04T22:12:42.304Z,77.80
2018-03-04T22:15:41.274Z,79.10
2018-03-04T22:18:36.454Z,80.30
2018-03-04T22:21:33.677Z,81.20
2018-03-04T22:24:56.420Z,81.10
2018-03-04T22:27:41.159Z,82.00
2018-03-04T22:30:56.816Z,82.00
2018-03-04T22:33:54.242Z,82.00
2018-03-04T22:36:34.537Z,81.90
2018-03-04T22:39:19.777Z,82.10
2018-03-04T22:54:36.373Z,83.10
2018-03-04T22:57:24.343Z,83.30
2018-03-04T23:03:48.972Z,83.70
2018-03-04T23:06:32.714Z,83.70
2018-03-04T23:09:30.951Z,83.70
2018-03-04T23:15:16.803Z,83.50
2018-03-04T23:18:06.640Z,83.80
2018-03-04T23:20:52.045Z,84.40
2018-03-04T23:26:39.334Z,76.90
2018-03-04T23:30:04.901Z,76.90
2018-03-04T23:32:54.075Z,79.60
